Burr Ridge, Illinois
Current Conditions -  °F | °C
As of 7:53 PM on Friday 24 Oct 2014 (Local Time) from KMDW Reporting Station
Overcast Overcast  
Wind Chill: 63°   Ceiling: 9500
Heat Index: 63°   Visibility: 10mi
Dew Point: 48°   Wind: 6mph
Humidity: 58%   Direction: 170°S
Pressure: 29.95"   Gusts: NA
Location:  41.755°N, 87.9282°W
Report Text: KMDW 250053Z 17005KT 10SM BKN095 OVC250 17/09 A2995 RMK AO2 SLP140 T01720089
Loading
Personal Weather Stations






























Interactive Weather Map
Tropical Storm Tracking
New forecast layout! Learn more

10-Day Weather Forecast

Advertisements
Track Severe Weather on mobile